CheckWX is a tool to help pilots better visualize weather data.  It is not intended as a substitute for an official pre-flight weather briefing.

17:30:10 UTC

CYBG METAR
CFB Bagotville Airport
Bagotville, Canada
Current

30 mins ago

CYBG 241700Z 28020G28KT 25SM FEW140 M04/M09 A2990 RMK AC1 SLP135
Observed
Mar-24 @ 17:00 UTC
Wind
  • 280° at 20 KTS
  • Gusting to 28 KTS
Visibility
25 SM
Flight Rules
VFR
Cloud Levels
  • Few at 14,000' AGL
Temperature
-4°C / 25°F
Dewpoint
-9°C / 16°F
Humidity
69%
Altimeter
29.9" Hg
Pressure
1013.5 hPa
Previous

2 hours ago

CYBG 241600Z 29021G27KT 25SM FEW030 FEW140 M03/M08 A2987 RMK SC1AC1 SLP127
Observed
Mar-24 @ 16:00 UTC
Wind
  • 290° at 21 KTS
  • Gusting to 27 KTS
Visibility
25 SM
Flight Rules
VFR
Cloud Levels
  • Few at 3,000' AGL
  • Few at 14,000' AGL
Temperature
-3°C / 27°F
Dewpoint
-8°C / 18°F
Humidity
69%
Altimeter
29.87" Hg
Pressure
1012.7 hPa
Previous

3 hours ago

CYBG 241500Z 29020G31KT 25SM FEW030 SCT080 BKN100 M03/M07 A2985 RMK SC2AC2AC2 SLP117
Observed
Mar-24 @ 15:00 UTC
Wind
  • 290° at 20 KTS
  • Gusting to 31 KTS
Visibility
25 SM
Flight Rules
VFR
Cloud Levels
  • Few at 3,000' AGL
  • Scattered at 8,000' AGL
  • Broken at 10,000' AGL
Temperature
-3°C / 27°F
Dewpoint
-7°C / 19°F
Humidity
74%
Altimeter
29.85" Hg
Pressure
1011.7 hPa